sensor_id;sensor_type;location;lat;lon;timestamp;temperature;humidity
837;DHT22;400;53.550;9.932;2024-03-23T00:56:14;9.40;1.00
837;DHT22;400;53.550;9.932;2024-03-23T00:58:40;9.50;1.00
837;DHT22;400;53.550;9.932;2024-03-23T01:01:11;9.50;1.00
837;DHT22;400;53.550;9.932;2024-03-23T01:03:38;9.40;1.00
837;DHT22;400;53.550;9.932;2024-03-23T01:06:05;9.40;1.00
837;DHT22;400;53.550;9.932;2024-03-23T01:08:33;9.40;1.00
837;DHT22;400;53.550;9.932;2024-03-23T01:11:00;9.30;1.00
837;DHT22;400;53.550;9.932;2024-03-23T01:13:27;9.40;1.00
837;DHT22;400;53.550;9.932;2024-03-23T01:15:55;9.40;1.00
837;DHT22;400;53.550;9.932;2024-03-23T01:18:22;9.40;1.00
837;DHT22;400;53.550;9.932;2024-03-23T01:20:50;9.50;1.00
837;DHT22;400;53.550;9.932;2024-03-23T01:23:15;9.50;1.00
837;DHT22;400;53.550;9.932;2024-03-23T01:25:53;9.40;1.00
837;DHT22;400;53.550;9.932;2024-03-23T01:28:21;9.40;1.00
837;DHT22;400;53.550;9.932;2024-03-23T01:30:47;9.40;1.00
837;DHT22;400;53.550;9.932;2024-03-23T01:33:14;9.40;1.00
837;DHT22;400;53.550;9.932;2024-03-23T01:35:41;9.30;1.00
837;DHT22;400;53.550;9.932;2024-03-23T01:38:07;9.40;1.00
837;DHT22;400;53.550;9.932;2024-03-23T01:40:36;9.30;1.00
837;DHT22;400;53.550;9.932;2024-03-23T01:43:05;9.40;1.00
837;DHT22;400;53.550;9.932;2024-03-23T01:45:33;9.30;1.00
837;DHT22;400;53.550;9.932;2024-03-23T01:47:59;9.30;1.00
837;DHT22;400;53.550;9.932;2024-03-23T01:50:27;9.30;1.00
837;DHT22;400;53.550;9.932;2024-03-23T01:52:53;9.40;1.00
837;DHT22;400;53.550;9.932;2024-03-23T01:55:20;9.40;1.00
837;DHT22;400;53.550;9.932;2024-03-23T01:57:47;9.20;1.00
837;DHT22;400;53.550;9.932;2024-03-23T02:00:17;9.20;1.00
837;DHT22;400;53.550;9.932;2024-03-23T02:02:43;9.20;1.00
837;DHT22;400;53.550;9.932;2024-03-23T02:05:10;9.20;1.00
837;DHT22;400;53.550;9.932;2024-03-23T02:07:37;9.30;1.00
837;DHT22;400;53.550;9.932;2024-03-23T02:10:06;9.20;1.00
837;DHT22;400;53.550;9.932;2024-03-23T02:12:32;9.20;1.00
837;DHT22;400;53.550;9.932;2024-03-23T02:14:59;9.10;1.00
837;DHT22;400;53.550;9.932;2024-03-23T02:17:26;9.00;1.00
837;DHT22;400;53.550;9.932;2024-03-23T02:19:53;9.00;1.00
837;DHT22;400;53.550;9.932;2024-03-23T02:22:19;9.10;1.00
837;DHT22;400;53.550;9.932;2024-03-23T02:24:47;9.10;1.00
837;DHT22;400;53.550;9.932;2024-03-23T02:27:14;9.00;1.00
837;DHT22;400;53.550;9.932;2024-03-23T02:29:40;9.10;1.00
837;DHT22;400;53.550;9.932;2024-03-23T02:32:07;9.20;1.00
837;DHT22;400;53.550;9.932;2024-03-23T02:34:34;9.20;1.00
837;DHT22;400;53.550;9.932;2024-03-23T02:37:01;9.20;1.00
837;DHT22;400;53.550;9.932;2024-03-23T02:39:27;9.20;1.00
837;DHT22;400;53.550;9.932;2024-03-23T02:41:56;9.20;1.00
837;DHT22;400;53.550;9.932;2024-03-23T02:44:21;9.20;1.00
837;DHT22;400;53.550;9.932;2024-03-23T02:46:48;9.20;1.00
837;DHT22;400;53.550;9.932;2024-03-23T02:49:14;9.20;1.00
837;DHT22;400;53.550;9.932;2024-03-23T02:51:41;9.10;1.00
837;DHT22;400;53.550;9.932;2024-03-23T02:54:06;9.10;1.00
837;DHT22;400;53.550;9.932;2024-03-23T02:56:34;9.10;1.00
837;DHT22;400;53.550;9.932;2024-03-23T02:59:01;9.00;1.00
837;DHT22;400;53.550;9.932;2024-03-23T03:01:28;8.90;1.00
837;DHT22;400;53.550;9.932;2024-03-23T03:03:54;9.00;1.00
837;DHT22;400;53.550;9.932;2024-03-23T03:06:24;9.00;1.00
837;DHT22;400;53.550;9.932;2024-03-23T03:08:50;9.00;1.00
837;DHT22;400;53.550;9.932;2024-03-23T03:11:16;9.00;1.00
837;DHT22;400;53.550;9.932;2024-03-23T03:13:42;9.00;1.00
837;DHT22;400;53.550;9.932;2024-03-23T03:16:11;8.90;1.00
837;DHT22;400;53.550;9.932;2024-03-23T03:18:37;9.00;1.00
837;DHT22;400;53.550;9.932;2024-03-23T03:21:04;8.90;1.00
837;DHT22;400;53.550;9.932;2024-03-23T03:23:34;8.90;1.00
837;DHT22;400;53.550;9.932;2024-03-23T03:26:00;8.90;1.00
837;DHT22;400;53.550;9.932;2024-03-23T03:28:27;8.90;1.00
837;DHT22;400;53.550;9.932;2024-03-23T03:30:56;8.90;1.00
837;DHT22;400;53.550;9.932;2024-03-23T03:33:23;8.90;1.00
837;DHT22;400;53.550;9.932;2024-03-23T03:35:50;8.90;1.00
837;DHT22;400;53.550;9.932;2024-03-23T03:38:18;8.90;1.00
837;DHT22;400;53.550;9.932;2024-03-23T03:40:45;8.90;1.00
837;DHT22;400;53.550;9.932;2024-03-23T03:43:11;8.90;1.00
837;DHT22;400;53.550;9.932;2024-03-23T03:45:38;8.90;1.00
837;DHT22;400;53.550;9.932;2024-03-23T03:48:04;8.90;1.00
837;DHT22;400;53.550;9.932;2024-03-23T03:50:32;8.90;1.00
837;DHT22;400;53.550;9.932;2024-03-23T03:52:58;8.90;1.00
837;DHT22;400;53.550;9.932;2024-03-23T03:55:26;8.90;1.00
837;DHT22;400;53.550;9.932;2024-03-23T03:57:51;8.90;1.00
837;DHT22;400;53.550;9.932;2024-03-23T04:00:18;8.80;1.00
837;DHT22;400;53.550;9.932;2024-03-23T04:02:44;8.80;1.00
837;DHT22;400;53.550;9.932;2024-03-23T04:05:12;8.80;1.00
837;DHT22;400;53.550;9.932;2024-03-23T04:07:39;8.70;1.00
837;DHT22;400;53.550;9.932;2024-03-23T04:10:07;8.70;1.00
837;DHT22;400;53.550;9.932;2024-03-23T04:12:33;8.80;1.00
837;DHT22;400;53.550;9.932;2024-03-23T04:15:00;8.80;1.00
837;DHT22;400;53.550;9.932;2024-03-23T04:17:29;8.80;1.00
837;DHT22;400;53.550;9.932;2024-03-23T04:19:57;8.80;1.00
837;DHT22;400;53.550;9.932;2024-03-23T04:22:24;8.70;1.00
837;DHT22;400;53.550;9.932;2024-03-23T04:24:53;8.70;1.00
837;DHT22;400;53.550;9.932;2024-03-23T04:27:18;8.60;1.00
837;DHT22;400;53.550;9.932;2024-03-23T04:29:47;8.70;1.00
837;DHT22;400;53.550;9.932;2024-03-23T04:32:13;8.60;1.00
837;DHT22;400;53.550;9.932;2024-03-23T04:34:41;8.70;1.00
837;DHT22;400;53.550;9.932;2024-03-23T04:37:07;8.70;1.00
837;DHT22;400;53.550;9.932;2024-03-23T04:39:34;8.70;1.00
837;DHT22;400;53.550;9.932;2024-03-23T04:42:06;8.70;1.00
837;DHT22;400;53.550;9.932;2024-03-23T04:44:37;8.70;1.00
837;DHT22;400;53.550;9.932;2024-03-23T04:47:04;8.70;1.00
837;DHT22;400;53.550;9.932;2024-03-23T04:49:32;8.70;1.00
837;DHT22;400;53.550;9.932;2024-03-23T04:51:59;8.70;1.00
837;DHT22;400;53.550;9.932;2024-03-23T04:54:25;8.70;1.00
837;DHT22;400;53.550;9.932;2024-03-23T04:56:56;8.70;1.00
837;DHT22;400;53.550;9.932;2024-03-23T04:59:26;8.70;1.00
837;DHT22;400;53.550;9.932;2024-03-23T05:01:53;8.60;1.00
837;DHT22;400;53.550;9.932;2024-03-23T05:04:18;8.60;1.00
837;DHT22;400;53.550;9.932;2024-03-23T05:06:45;8.60;1.00
837;DHT22;400;53.550;9.932;2024-03-23T05:09:11;8.60;1.00
837;DHT22;400;53.550;9.932;2024-03-23T05:11:38;8.60;1.00
837;DHT22;400;53.550;9.932;2024-03-23T05:14:04;8.60;1.00
837;DHT22;400;53.550;9.932;2024-03-23T05:16:32;8.60;1.00
837;DHT22;400;53.550;9.932;2024-03-23T05:18:58;8.60;1.00
837;DHT22;400;53.550;9.932;2024-03-23T05:21:26;8.60;1.00
837;DHT22;400;53.550;9.932;2024-03-23T05:23:53;8.50;1.00
837;DHT22;400;53.550;9.932;2024-03-23T05:26:21;8.60;1.00
837;DHT22;400;53.550;9.932;2024-03-23T05:28:47;8.60;1.00
837;DHT22;400;53.550;9.932;2024-03-23T05:31:22;8.60;1.00
837;DHT22;400;53.550;9.932;2024-03-23T05:33:50;8.50;1.00
837;DHT22;400;53.550;9.932;2024-03-23T05:36:17;8.50;1.00
837;DHT22;400;53.550;9.932;2024-03-23T05:38:43;8.60;1.00
837;DHT22;400;53.550;9.932;2024-03-23T05:41:10;8.60;1.00
837;DHT22;400;53.550;9.932;2024-03-23T05:43:36;8.60;1.00
837;DHT22;400;53.550;9.932;2024-03-23T05:46:03;8.60;1.00
837;DHT22;400;53.550;9.932;2024-03-23T05:48:30;8.60;1.00
837;DHT22;400;53.550;9.932;2024-03-23T05:50:58;8.60;1.00
837;DHT22;400;53.550;9.932;2024-03-23T05:53:24;8.70;1.00
837;DHT22;400;53.550;9.932;2024-03-23T05:55:59;8.70;1.00
837;DHT22;400;53.550;9.932;2024-03-23T05:58:25;8.60;1.00
837;DHT22;400;53.550;9.932;2024-03-23T06:00:57;8.60;1.00
837;DHT22;400;53.550;9.932;2024-03-23T06:03:23;8.50;1.00
837;DHT22;400;53.550;9.932;2024-03-23T06:05:50;8.50;1.00
837;DHT22;400;53.550;9.932;2024-03-23T06:08:18;8.60;1.00
837;DHT22;400;53.550;9.932;2024-03-23T06:10:45;8.60;1.00
837;DHT22;400;53.550;9.932;2024-03-23T06:13:11;8.60;1.00
837;DHT22;400;53.550;9.932;2024-03-23T06:15:38;8.60;1.00
837;DHT22;400;53.550;9.932;2024-03-23T06:18:04;8.60;1.00
837;DHT22;400;53.550;9.932;2024-03-23T06:20:33;8.60;1.00
837;DHT22;400;53.550;9.932;2024-03-23T06:22:59;8.50;1.00
837;DHT22;400;53.550;9.932;2024-03-23T06:25:27;8.60;1.00
837;DHT22;400;53.550;9.932;2024-03-23T06:27:53;8.40;1.00
837;DHT22;400;53.550;9.932;2024-03-23T06:30:20;8.40;1.00
837;DHT22;400;53.550;9.932;2024-03-23T06:32:46;8.40;1.00
837;DHT22;400;53.550;9.932;2024-03-23T06:35:13;8.20;1.00
837;DHT22;400;53.550;9.932;2024-03-23T06:37:38;8.20;1.00
837;DHT22;400;53.550;9.932;2024-03-23T06:40:07;8.20;1.00
837;DHT22;400;53.550;9.932;2024-03-23T06:42:36;8.30;1.00
837;DHT22;400;53.550;9.932;2024-03-23T06:45:04;8.30;1.00
837;DHT22;400;53.550;9.932;2024-03-23T06:47:30;8.30;1.00
837;DHT22;400;53.550;9.932;2024-03-23T06:49:57;8.30;1.00
837;DHT22;400;53.550;9.932;2024-03-23T06:52:23;8.30;1.00
837;DHT22;400;53.550;9.932;2024-03-23T06:54:49;8.40;1.00
837;DHT22;400;53.550;9.932;2024-03-23T06:57:15;8.40;1.00
837;DHT22;400;53.550;9.932;2024-03-23T06:59:43;8.50;1.00
837;DHT22;400;53.550;9.932;2024-03-23T07:02:09;8.50;1.00
837;DHT22;400;53.550;9.932;2024-03-23T07:04:36;8.40;1.00
837;DHT22;400;53.550;9.932;2024-03-23T07:07:02;8.30;1.00
837;DHT22;400;53.550;9.932;2024-03-23T07:09:29;8.30;1.00
837;DHT22;400;53.550;9.932;2024-03-23T07:11:56;8.20;1.00
837;DHT22;400;53.550;9.932;2024-03-23T07:14:22;8.10;1.00
837;DHT22;400;53.550;9.932;2024-03-23T07:16:50;8.10;1.00
837;DHT22;400;53.550;9.932;2024-03-23T07:19:17;8.10;1.00
837;DHT22;400;53.550;9.932;2024-03-23T07:21:43;8.20;1.00
837;DHT22;400;53.550;9.932;2024-03-23T07:24:10;8.20;1.00
837;DHT22;400;53.550;9.932;2024-03-23T07:26:36;8.10;1.00
837;DHT22;400;53.550;9.932;2024-03-23T07:29:03;8.10;1.00
837;DHT22;400;53.550;9.932;2024-03-23T07:31:30;8.10;1.00
837;DHT22;400;53.550;9.932;2024-03-23T07:34:00;8.20;1.00
837;DHT22;400;53.550;9.932;2024-03-23T07:36:26;8.40;1.00
837;DHT22;400;53.550;9.932;2024-03-23T07:38:53;8.50;1.00
837;DHT22;400;53.550;9.932;2024-03-23T07:41:21;8.30;1.00
837;DHT22;400;53.550;9.932;2024-03-23T07:43:48;8.40;1.00
837;DHT22;400;53.550;9.932;2024-03-23T07:46:15;8.40;1.00
837;DHT22;400;53.550;9.932;2024-03-23T07:48:42;8.40;1.00
837;DHT22;400;53.550;9.932;2024-03-23T07:51:11;8.50;1.00
837;DHT22;400;53.550;9.932;2024-03-23T07:53:37;8.60;1.00
837;DHT22;400;53.550;9.932;2024-03-23T07:56:06;8.50;1.00
837;DHT22;400;53.550;9.932;2024-03-23T07:58:33;8.50;1.00
837;DHT22;400;53.550;9.932;2024-03-23T08:01:04;8.50;1.00
837;DHT22;400;53.550;9.932;2024-03-23T08:03:33;8.60;1.00
837;DHT22;400;53.550;9.932;2024-03-23T08:06:08;8.60;1.00
837;DHT22;400;53.550;9.932;2024-03-23T08:08:36;8.70;1.00
837;DHT22;400;53.550;9.932;2024-03-23T08:11:04;8.80;1.00
837;DHT22;400;53.550;9.932;2024-03-23T08:13:33;8.80;1.00
837;DHT22;400;53.550;9.932;2024-03-23T08:16:00;8.90;1.00
837;DHT22;400;53.550;9.932;2024-03-23T08:18:27;9.00;1.00
837;DHT22;400;53.550;9.932;2024-03-23T08:20:58;9.00;1.00
837;DHT22;400;53.550;9.932;2024-03-23T08:23:27;8.90;1.00
837;DHT22;400;53.550;9.932;2024-03-23T08:25:57;9.00;1.00
837;DHT22;400;53.550;9.932;2024-03-23T08:28:25;9.00;1.00
837;DHT22;400;53.550;9.932;2024-03-23T08:30:51;8.90;1.00
837;DHT22;400;53.550;9.932;2024-03-23T08:33:17;9.00;1.00
837;DHT22;400;53.550;9.932;2024-03-23T08:35:53;9.10;1.00
837;DHT22;400;53.550;9.932;2024-03-23T08:38:20;9.10;1.00
837;DHT22;400;53.550;9.932;2024-03-23T08:40:48;9.20;1.00
837;DHT22;400;53.550;9.932;2024-03-23T08:43:17;9.10;1.00
837;DHT22;400;53.550;9.932;2024-03-23T08:45:46;9.10;1.00
837;DHT22;400;53.550;9.932;2024-03-23T08:48:18;9.20;1.00
837;DHT22;400;53.550;9.932;2024-03-23T08:51:01;9.10;1.00
837;DHT22;400;53.550;9.932;2024-03-23T08:53:34;9.10;1.00
837;DHT22;400;53.550;9.932;2024-03-23T08:56:02;9.10;1.00
837;DHT22;400;53.550;9.932;2024-03-23T08:58:32;9.20;1.00
837;DHT22;400;53.550;9.932;2024-03-23T09:01:04;9.20;1.00
837;DHT22;400;53.550;9.932;2024-03-23T09:03:31;9.30;1.00
837;DHT22;400;53.550;9.932;2024-03-23T09:05:58;9.40;1.00
837;DHT22;400;53.550;9.932;2024-03-23T09:08:28;9.50;1.00
837;DHT22;400;53.550;9.932;2024-03-23T09:10:55;9.50;1.00
837;DHT22;400;53.550;9.932;2024-03-23T09:13:24;9.60;1.00
837;DHT22;400;53.550;9.932;2024-03-23T09:15:51;9.70;1.00
837;DHT22;400;53.550;9.932;2024-03-23T09:18:22;9.80;1.00
837;DHT22;400;53.550;9.932;2024-03-23T09:20:48;9.80;1.00
837;DHT22;400;53.550;9.932;2024-03-23T09:23:16;9.90;1.00
837;DHT22;400;53.550;9.932;2024-03-23T09:25:45;9.90;1.00
837;DHT22;400;53.550;9.932;2024-03-23T09:28:15;9.60;1.00
837;DHT22;400;53.550;9.932;2024-03-23T09:30:43;9.60;1.00
837;DHT22;400;53.550;9.932;2024-03-23T09:33:13;9.70;1.00
837;DHT22;400;53.550;9.932;2024-03-23T09:35:41;9.50;1.00
837;DHT22;400;53.550;9.932;2024-03-23T09:38:10;9.50;1.00
837;DHT22;400;53.550;9.932;2024-03-23T09:40:40;9.50;1.00
837;DHT22;400;53.550;9.932;2024-03-23T09:43:08;9.50;1.00
837;DHT22;400;53.550;9.932;2024-03-23T09:45:39;9.70;1.00
837;DHT22;400;53.550;9.932;2024-03-23T09:48:08;9.80;1.00
837;DHT22;400;53.550;9.932;2024-03-23T09:50:35;9.80;1.00
837;DHT22;400;53.550;9.932;2024-03-23T09:53:03;9.80;1.00
837;DHT22;400;53.550;9.932;2024-03-23T09:55:31;9.90;1.00
837;DHT22;400;53.550;9.932;2024-03-23T09:58:02;10.00;1.00
837;DHT22;400;53.550;9.932;2024-03-23T10:00:33;10.00;1.00
837;DHT22;400;53.550;9.932;2024-03-23T10:03:02;10.00;1.00
837;DHT22;400;53.550;9.932;2024-03-23T10:05:30;10.00;1.00
837;DHT22;400;53.550;9.932;2024-03-23T10:08:18;10.10;1.00
837;DHT22;400;53.550;9.932;2024-03-23T10:10:48;10.30;1.00
837;DHT22;400;53.550;9.932;2024-03-23T10:13:26;10.40;1.00
837;DHT22;400;53.550;9.932;2024-03-23T10:15:59;10.30;1.00
837;DHT22;400;53.550;9.932;2024-03-23T10:18:27;10.40;1.00
837;DHT22;400;53.550;9.932;2024-03-23T10:21:09;10.40;1.00
837;DHT22;400;53.550;9.932;2024-03-23T10:23:38;10.50;1.00
837;DHT22;400;53.550;9.932;2024-03-23T10:26:16;10.40;1.00
837;DHT22;400;53.550;9.932;2024-03-23T10:29:03;10.40;1.00
837;DHT22;400;53.550;9.932;2024-03-23T10:31:34;10.40;1.00
837;DHT22;400;53.550;9.932;2024-03-23T10:34:02;10.50;1.00
837;DHT22;400;53.550;9.932;2024-03-23T10:36:32;10.40;1.00
837;DHT22;400;53.550;9.932;2024-03-23T10:39:05;10.40;1.00
837;DHT22;400;53.550;9.932;2024-03-23T10:41:33;10.00;1.00
837;DHT22;400;53.550;9.932;2024-03-23T10:44:01;9.80;1.00
837;DHT22;400;53.550;9.932;2024-03-23T10:46:29;9.70;1.00
837;DHT22;400;53.550;9.932;2024-03-23T10:48:57;9.60;1.00
837;DHT22;400;53.550;9.932;2024-03-23T10:51:23;9.50;1.00
837;DHT22;400;53.550;9.932;2024-03-23T10:53:53;9.50;1.00
837;DHT22;400;53.550;9.932;2024-03-23T10:56:21;9.50;1.00
837;DHT22;400;53.550;9.932;2024-03-23T10:58:50;9.70;1.00
837;DHT22;400;53.550;9.932;2024-03-23T11:01:19;9.70;1.00
837;DHT22;400;53.550;9.932;2024-03-23T11:03:47;9.70;1.00
837;DHT22;400;53.550;9.932;2024-03-23T11:06:35;9.70;1.00
837;DHT22;400;53.550;9.932;2024-03-23T11:09:07;9.70;1.00
837;DHT22;400;53.550;9.932;2024-03-23T11:11:53;9.80;1.00
837;DHT22;400;53.550;9.932;2024-03-23T11:14:23;9.90;1.00
837;DHT22;400;53.550;9.932;2024-03-23T11:17:08;10.00;1.00
837;DHT22;400;53.550;9.932;2024-03-23T11:19:38;10.10;1.00
837;DHT22;400;53.550;9.932;2024-03-23T11:22:05;10.10;1.00
837;DHT22;400;53.550;9.932;2024-03-23T11:24:35;10.00;1.00
837;DHT22;400;53.550;9.932;2024-03-23T11:27:01;9.90;1.00
837;DHT22;400;53.550;9.932;2024-03-23T11:29:31;9.90;1.00
837;DHT22;400;53.550;9.932;2024-03-23T11:31:59;9.90;1.00
837;DHT22;400;53.550;9.932;2024-03-23T11:34:29;9.90;1.00
837;DHT22;400;53.550;9.932;2024-03-23T11:37:04;10.00;1.00
837;DHT22;400;53.550;9.932;2024-03-23T11:39:31;10.00;1.00
837;DHT22;400;53.550;9.932;2024-03-23T11:41:59;10.10;1.00
837;DHT22;400;53.550;9.932;2024-03-23T11:44:26;10.20;1.00
837;DHT22;400;53.550;9.932;2024-03-23T11:47:08;10.40;1.00
837;DHT22;400;53.550;9.932;2024-03-23T11:49:38;10.60;1.00
837;DHT22;400;53.550;9.932;2024-03-23T11:52:06;10.70;1.00
837;DHT22;400;53.550;9.932;2024-03-23T11:54:36;10.90;1.00
837;DHT22;400;53.550;9.932;2024-03-23T11:57:08;11.00;1.00
837;DHT22;400;53.550;9.932;2024-03-23T11:59:36;11.00;1.00
837;DHT22;400;53.550;9.932;2024-03-23T12:02:06;10.90;1.00
837;DHT22;400;53.550;9.932;2024-03-23T12:04:35;10.50;1.00
837;DHT22;400;53.550;9.932;2024-03-23T12:07:13;9.80;1.00
837;DHT22;400;53.550;9.932;2024-03-23T12:09:41;9.60;1.00
837;DHT22;400;53.550;9.932;2024-03-23T12:12:13;9.60;1.00
837;DHT22;400;53.550;9.932;2024-03-23T12:14:43;9.70;1.00
837;DHT22;400;53.550;9.932;2024-03-23T12:17:12;9.60;1.00
837;DHT22;400;53.550;9.932;2024-03-23T12:19:43;9.60;1.00
837;DHT22;400;53.550;9.932;2024-03-23T12:22:14;9.70;1.00
837;DHT22;400;53.550;9.932;2024-03-23T12:24:45;9.70;1.00
837;DHT22;400;53.550;9.932;2024-03-23T12:27:17;9.70;1.00
837;DHT22;400;53.550;9.932;2024-03-23T12:29:46;9.80;1.00
837;DHT22;400;53.550;9.932;2024-03-23T12:32:12;9.70;1.00
837;DHT22;400;53.550;9.932;2024-03-23T12:34:39;9.70;1.00
837;DHT22;400;53.550;9.932;2024-03-23T12:37:06;9.80;1.00
837;DHT22;400;53.550;9.932;2024-03-23T12:39:33;9.60;1.00
837;DHT22;400;53.550;9.932;2024-03-23T12:42:00;9.50;1.00
837;DHT22;400;53.550;9.932;2024-03-23T12:44:29;9.20;1.00
837;DHT22;400;53.550;9.932;2024-03-23T12:46:55;9.00;1.00
837;DHT22;400;53.550;9.932;2024-03-23T12:49:22;8.70;1.00
837;DHT22;400;53.550;9.932;2024-03-23T12:51:53;8.50;1.00
837;DHT22;400;53.550;9.932;2024-03-23T12:54:21;8.40;1.00
837;DHT22;400;53.550;9.932;2024-03-23T12:56:47;8.50;1.00
837;DHT22;400;53.550;9.932;2024-03-23T12:59:15;8.40;1.00
837;DHT22;400;53.550;9.932;2024-03-23T13:01:43;8.40;1.00
837;DHT22;400;53.550;9.932;2024-03-23T13:04:10;8.50;1.00
837;DHT22;400;53.550;9.932;2024-03-23T13:06:40;8.40;1.00
837;DHT22;400;53.550;9.932;2024-03-23T13:09:14;8.40;1.00
837;DHT22;400;53.550;9.932;2024-03-23T13:11:50;8.60;1.00
837;DHT22;400;53.550;9.932;2024-03-23T13:14:18;8.60;1.00
837;DHT22;400;53.550;9.932;2024-03-23T13:16:50;8.80;1.00
837;DHT22;400;53.550;9.932;2024-03-23T13:19:19;9.00;1.00
837;DHT22;400;53.550;9.932;2024-03-23T13:21:54;9.10;1.00
837;DHT22;400;53.550;9.932;2024-03-23T13:24:24;9.00;1.00
837;DHT22;400;53.550;9.932;2024-03-23T13:26:51;8.90;1.00
837;DHT22;400;53.550;9.932;2024-03-23T13:29:18;8.90;1.00
837;DHT22;400;53.550;9.932;2024-03-23T13:31:44;8.80;1.00
837;DHT22;400;53.550;9.932;2024-03-23T13:34:12;9.00;1.00
837;DHT22;400;53.550;9.932;2024-03-23T13:36:41;8.80;1.00
837;DHT22;400;53.550;9.932;2024-03-23T13:39:08;8.70;1.00
837;DHT22;400;53.550;9.932;2024-03-23T13:41:38;8.90;1.00
837;DHT22;400;53.550;9.932;2024-03-23T13:44:07;8.90;1.00
837;DHT22;400;53.550;9.932;2024-03-23T13:46:35;9.00;1.00
837;DHT22;400;53.550;9.932;2024-03-23T13:49:01;9.20;1.00
837;DHT22;400;53.550;9.932;2024-03-23T13:51:29;9.10;1.00
837;DHT22;400;53.550;9.932;2024-03-23T13:53:56;9.20;1.00
837;DHT22;400;53.550;9.932;2024-03-23T13:56:27;9.40;1.00
837;DHT22;400;53.550;9.932;2024-03-23T13:58:54;9.30;1.00
837;DHT22;400;53.550;9.932;2024-03-23T14:01:21;9.20;1.00
837;DHT22;400;53.550;9.932;2024-03-23T14:03:47;9.10;1.00
837;DHT22;400;53.550;9.932;2024-03-23T14:06:14;9.10;1.00
837;DHT22;400;53.550;9.932;2024-03-23T14:08:43;9.10;1.00
837;DHT22;400;53.550;9.932;2024-03-23T14:11:10;9.30;1.00
837;DHT22;400;53.550;9.932;2024-03-23T14:13:37;9.40;1.00
837;DHT22;400;53.550;9.932;2024-03-23T14:16:06;9.50;1.00
837;DHT22;400;53.550;9.932;2024-03-23T14:18:32;9.40;1.00
837;DHT22;400;53.550;9.932;2024-03-23T14:21:00;9.30;1.00
837;DHT22;400;53.550;9.932;2024-03-23T14:23:26;9.20;1.00
837;DHT22;400;53.550;9.932;2024-03-23T14:26:00;9.20;1.00
837;DHT22;400;53.550;9.932;2024-03-23T14:28:29;9.30;1.00
837;DHT22;400;53.550;9.932;2024-03-23T14:30:59;9.50;1.00
837;DHT22;400;53.550;9.932;2024-03-23T14:33:24;9.50;1.00
837;DHT22;400;53.550;9.932;2024-03-23T14:35:55;9.50;1.00
837;DHT22;400;53.550;9.932;2024-03-23T14:38:23;9.60;1.00
837;DHT22;400;53.550;9.932;2024-03-23T14:40:50;9.60;1.00
837;DHT22;400;53.550;9.932;2024-03-23T14:43:19;9.80;1.00
837;DHT22;400;53.550;9.932;2024-03-23T14:46:07;9.70;1.00
837;DHT22;400;53.550;9.932;2024-03-23T14:48:34;9.70;1.00
837;DHT22;400;53.550;9.932;2024-03-23T14:51:01;9.70;1.00
837;DHT22;400;53.550;9.932;2024-03-23T14:53:30;9.50;1.00
837;DHT22;400;53.550;9.932;2024-03-23T14:55:57;9.40;1.00
837;DHT22;400;53.550;9.932;2024-03-23T14:58:24;9.00;1.00
837;DHT22;400;53.550;9.932;2024-03-23T15:00:51;8.80;1.00
837;DHT22;400;53.550;9.932;2024-03-23T15:03:17;8.80;1.00
837;DHT22;400;53.550;9.932;2024-03-23T15:05:52;8.60;1.00
837;DHT22;400;53.550;9.932;2024-03-23T15:08:18;8.60;1.00
837;DHT22;400;53.550;9.932;2024-03-23T15:10:44;8.60;1.00
837;DHT22;400;53.550;9.932;2024-03-23T15:13:11;8.50;1.00
837;DHT22;400;53.550;9.932;2024-03-23T15:15:44;8.50;1.00
837;DHT22;400;53.550;9.932;2024-03-23T15:18:13;8.70;1.00
837;DHT22;400;53.550;9.932;2024-03-23T15:20:54;8.60;1.00
837;DHT22;400;53.550;9.932;2024-03-23T15:23:23;8.80;1.00
837;DHT22;400;53.550;9.932;2024-03-23T15:25:54;8.90;1.00
837;DHT22;400;53.550;9.932;2024-03-23T15:28:20;9.00;1.00
837;DHT22;400;53.550;9.932;2024-03-23T15:30:50;9.00;1.00
837;DHT22;400;53.550;9.932;2024-03-23T15:33:17;9.20;1.00
837;DHT22;400;53.550;9.932;2024-03-23T15:35:43;9.20;1.00
837;DHT22;400;53.550;9.932;2024-03-23T15:38:09;9.20;1.00
837;DHT22;400;53.550;9.932;2024-03-23T15:40:36;9.20;1.00
837;DHT22;400;53.550;9.932;2024-03-23T15:43:06;9.10;1.00
837;DHT22;400;53.550;9.932;2024-03-23T15:45:33;9.10;1.00
837;DHT22;400;53.550;9.932;2024-03-23T15:48:00;9.20;1.00
837;DHT22;400;53.550;9.932;2024-03-23T15:50:27;9.20;1.00
837;DHT22;400;53.550;9.932;2024-03-23T15:52:53;9.30;1.00
837;DHT22;400;53.550;9.932;2024-03-23T15:55:21;9.30;1.00
837;DHT22;400;53.550;9.932;2024-03-23T15:57:48;9.30;1.00
837;DHT22;400;53.550;9.932;2024-03-23T16:00:17;9.40;1.00
837;DHT22;400;53.550;9.932;2024-03-23T16:02:44;9.40;1.00
837;DHT22;400;53.550;9.932;2024-03-23T16:05:13;9.40;1.00
837;DHT22;400;53.550;9.932;2024-03-23T16:07:39;9.30;1.00
837;DHT22;400;53.550;9.932;2024-03-23T16:10:09;9.30;1.00
837;DHT22;400;53.550;9.932;2024-03-23T16:12:37;9.20;1.00
837;DHT22;400;53.550;9.932;2024-03-23T16:15:05;9.30;1.00
837;DHT22;400;53.550;9.932;2024-03-23T16:17:31;9.10;1.00
837;DHT22;400;53.550;9.932;2024-03-23T16:20:03;8.90;1.00
837;DHT22;400;53.550;9.932;2024-03-23T16:22:34;9.00;1.00
837;DHT22;400;53.550;9.932;2024-03-23T16:25:05;8.90;1.00
837;DHT22;400;53.550;9.932;2024-03-23T16:27:35;9.00;1.00
837;DHT22;400;53.550;9.932;2024-03-23T16:30:08;9.00;1.00
837;DHT22;400;53.550;9.932;2024-03-23T16:32:36;8.90;1.00
837;DHT22;400;53.550;9.932;2024-03-23T16:35:07;8.90;1.00
837;DHT22;400;53.550;9.932;2024-03-23T16:37:37;9.00;1.00
837;DHT22;400;53.550;9.932;2024-03-23T16:40:06;8.90;1.00
837;DHT22;400;53.550;9.932;2024-03-23T16:42:35;8.80;1.00
837;DHT22;400;53.550;9.932;2024-03-23T16:45:05;9.00;1.00
837;DHT22;400;53.550;9.932;2024-03-23T16:47:34;8.90;1.00
837;DHT22;400;53.550;9.932;2024-03-23T16:50:05;8.90;1.00
837;DHT22;400;53.550;9.932;2024-03-23T16:52:42;9.00;1.00
837;DHT22;400;53.550;9.932;2024-03-23T16:55:11;9.00;1.00
837;DHT22;400;53.550;9.932;2024-03-23T16:57:43;9.00;1.00
837;DHT22;400;53.550;9.932;2024-03-23T17:00:15;8.90;1.00
837;DHT22;400;53.550;9.932;2024-03-23T17:02:42;9.00;1.00
837;DHT22;400;53.550;9.932;2024-03-23T17:05:10;9.00;1.00
837;DHT22;400;53.550;9.932;2024-03-23T17:07:36;9.00;1.00
837;DHT22;400;53.550;9.932;2024-03-23T17:10:04;9.00;1.00
837;DHT22;400;53.550;9.932;2024-03-23T17:12:30;9.00;1.00
837;DHT22;400;53.550;9.932;2024-03-23T17:14:57;9.00;1.00
837;DHT22;400;53.550;9.932;2024-03-23T17:17:22;8.80;1.00
837;DHT22;400;53.550;9.932;2024-03-23T17:19:59;8.90;1.00
837;DHT22;400;53.550;9.932;2024-03-23T17:22:26;8.80;1.00
837;DHT22;400;53.550;9.932;2024-03-23T17:24:58;8.80;1.00
837;DHT22;400;53.550;9.932;2024-03-23T17:27:30;8.80;1.00
837;DHT22;400;53.550;9.932;2024-03-23T17:29:58;8.70;1.00
837;DHT22;400;53.550;9.932;2024-03-23T17:32:23;8.80;1.00
837;DHT22;400;53.550;9.932;2024-03-23T17:34:50;8.90;1.00
837;DHT22;400;53.550;9.932;2024-03-23T17:37:16;8.90;1.00
837;DHT22;400;53.550;9.932;2024-03-23T17:39:46;9.00;1.00
837;DHT22;400;53.550;9.932;2024-03-23T17:42:13;9.00;1.00
837;DHT22;400;53.550;9.932;2024-03-23T17:44:43;9.00;1.00
837;DHT22;400;53.550;9.932;2024-03-23T17:47:09;8.90;1.00
837;DHT22;400;53.550;9.932;2024-03-23T17:49:36;8.90;1.00
837;DHT22;400;53.550;9.932;2024-03-23T17:52:08;8.70;1.00
837;DHT22;400;53.550;9.932;2024-03-23T17:54:37;8.70;1.00
837;DHT22;400;53.550;9.932;2024-03-23T17:57:04;8.70;1.00
837;DHT22;400;53.550;9.932;2024-03-23T17:59:32;8.50;1.00
837;DHT22;400;53.550;9.932;2024-03-23T18:01:59;8.60;1.00
837;DHT22;400;53.550;9.932;2024-03-23T18:04:26;8.60;1.00
837;DHT22;400;53.550;9.932;2024-03-23T18:06:52;8.60;1.00
837;DHT22;400;53.550;9.932;2024-03-23T18:09:21;8.60;1.00
837;DHT22;400;53.550;9.932;2024-03-23T18:11:54;8.50;1.00